createdAt,value
2022-12-31T00:01:58.395Z,90.98
2022-12-31T00:04:31.008Z,90.88
2022-12-31T00:07:03.529Z,90.87
2022-12-31T00:09:38.900Z,90.57
2022-12-31T00:12:11.618Z,90.43
2022-12-31T00:14:44.101Z,90.27
2022-12-31T00:17:16.556Z,90.39
2022-12-31T00:19:49.582Z,90.08
2022-12-31T00:22:22.829Z,89.91
2022-12-31T00:24:55.312Z,89.75
2022-12-31T00:27:27.861Z,89.83
2022-12-31T00:30:04.665Z,89.51
2022-12-31T00:32:37.580Z,89.65
2022-12-31T00:35:14.174Z,89.72
2022-12-31T00:37:46.757Z,89.82
2022-12-31T00:40:19.399Z,89.75
2022-12-31T00:42:51.933Z,89.90
2022-12-31T00:45:25.439Z,89.79
2022-12-31T00:47:57.976Z,89.84
2022-12-31T00:50:30.604Z,90.09
2022-12-31T00:53:03.068Z,90.37
2022-12-31T00:55:35.623Z,90.39
2022-12-31T00:58:09.280Z,90.74
2022-12-31T01:00:43.097Z,90.68
2022-12-31T01:03:15.792Z,90.79
2022-12-31T01:05:48.376Z,90.93
2022-12-31T01:08:21.272Z,90.64
2022-12-31T01:11:11.174Z,90.77
2022-12-31T01:13:43.669Z,90.73
2022-12-31T01:16:18.139Z,90.72
2022-12-31T01:18:51.797Z,90.79
2022-12-31T01:21:25.927Z,90.64
2022-12-31T01:23:58.951Z,90.47
2022-12-31T01:26:32.059Z,90.40
2022-12-31T01:29:05.038Z,90.26
2022-12-31T01:31:39.037Z,90.32
2022-12-31T01:34:12.965Z,90.53
2022-12-31T01:36:45.485Z,90.70
2022-12-31T01:39:18.004Z,90.82
2022-12-31T01:41:50.999Z,91.25
2022-12-31T01:45:00.194Z,91.25
2022-12-31T01:47:40.628Z,91.07
2022-12-31T01:50:19.652Z,90.91
2022-12-31T01:52:56.076Z,90.89
2022-12-31T01:55:34.575Z,90.73
2022-12-31T01:58:11.564Z,90.43
2022-12-31T02:00:46.798Z,89.97
2022-12-31T02:03:19.962Z,89.63
2022-12-31T02:05:59.147Z,89.54
2022-12-31T02:08:34.609Z,89.37
2022-12-31T02:11:29.230Z,89.45
2022-12-31T02:14:05.395Z,89.44
2022-12-31T02:16:47.979Z,89.71
2022-12-31T02:19:57.580Z,89.88
2022-12-31T02:22:49.335Z,89.96
2022-12-31T02:25:48.238Z,89.83
2022-12-31T02:28:37.059Z,89.95
2022-12-31T02:31:16.730Z,89.87
2022-12-31T02:33:56.201Z,89.92
2022-12-31T02:36:33.655Z,89.98
2022-12-31T02:39:08.835Z,89.89
2022-12-31T02:41:53.992Z,89.97
2022-12-31T02:44:28.750Z,89.99
2022-12-31T02:47:32.136Z,89.81
2022-12-31T02:50:21.527Z,89.60
2022-12-31T02:53:05.389Z,89.63
2022-12-31T02:55:47.184Z,89.63
2022-12-31T02:58:44.277Z,89.51
2022-12-31T03:01:39.116Z,89.53
2022-12-31T03:04:27.249Z,89.52
2022-12-31T03:07:01.334Z,89.26
2022-12-31T03:09:34.352Z,89.42
2022-12-31T03:12:26.898Z,89.46
2022-12-31T03:15:00.304Z,89.40
2022-12-31T03:17:32.823Z,89.42
2022-12-31T03:20:23.100Z,89.14
2022-12-31T03:22:55.593Z,89.30
2022-12-31T03:25:38.157Z,89.12
2022-12-31T03:28:14.102Z,89.10
2022-12-31T03:30:49.258Z,89.22
2022-12-31T03:33:22.181Z,89.13
2022-12-31T03:35:55.509Z,89.14
2022-12-31T03:38:28.092Z,89.00
2022-12-31T03:41:00.607Z,88.88
2022-12-31T03:43:33.172Z,89.01
2022-12-31T03:46:05.796Z,88.75
2022-12-31T03:48:40.066Z,88.63
2022-12-31T03:51:12.672Z,88.57
2022-12-31T03:53:45.169Z,88.55
2022-12-31T03:56:17.653Z,88.30
2022-12-31T03:58:50.166Z,88.25
2022-12-31T04:01:25.559Z,88.25
2022-12-31T04:03:58.155Z,88.08
2022-12-31T04:06:30.766Z,88.20
2022-12-31T04:09:03.257Z,88.05
2022-12-31T04:11:35.724Z,87.90
2022-12-31T04:14:08.819Z,87.94
2022-12-31T04:16:41.497Z,88.07
2022-12-31T04:19:14.368Z,87.87
2022-12-31T04:21:46.912Z,87.73
2022-12-31T04:24:19.470Z,87.81
2022-12-31T04:26:52.929Z,87.86
2022-12-31T04:29:25.719Z,87.85
2022-12-31T04:31:58.351Z,88.01
2022-12-31T04:34:30.910Z,87.91
2022-12-31T04:37:03.806Z,87.88
2022-12-31T04:39:37.522Z,87.85
2022-12-31T04:42:10.177Z,87.88
2022-12-31T04:44:42.647Z,88.09
2022-12-31T04:47:21.745Z,87.95
2022-12-31T04:49:56.085Z,88.22
2022-12-31T04:52:28.931Z,88.20
2022-12-31T04:55:01.508Z,88.06
2022-12-31T04:57:33.995Z,87.98
2022-12-31T05:00:08.087Z,88.00
2022-12-31T05:02:41.969Z,88.07
2022-12-31T05:05:15.784Z,88.07
2022-12-31T05:07:48.352Z,88.01
2022-12-31T05:10:20.955Z,88.15
2022-12-31T05:12:53.513Z,87.91
2022-12-31T05:15:26.087Z,87.77
2022-12-31T05:17:58.941Z,87.98
2022-12-31T05:20:32.120Z,87.80
2022-12-31T05:23:04.735Z,87.77
2022-12-31T05:25:38.588Z,87.87
2022-12-31T05:28:11.343Z,87.71
2022-12-31T05:30:44.227Z,87.60
2022-12-31T05:33:16.716Z,87.65
2022-12-31T05:35:49.279Z,87.64
2022-12-31T05:38:21.771Z,87.60
2022-12-31T05:41:02.431Z,87.21
2022-12-31T05:43:35.359Z,87.22
2022-12-31T05:46:08.266Z,87.14
2022-12-31T05:48:41.002Z,87.09
2022-12-31T05:51:13.844Z,86.95
2022-12-31T05:53:46.375Z,87.07
2022-12-31T05:56:20.648Z,87.05
2022-12-31T05:58:53.276Z,86.69
2022-12-31T06:01:25.911Z,86.69
2022-12-31T06:03:59.826Z,86.48
2022-12-31T06:06:32.639Z,86.31
2022-12-31T06:09:05.493Z,86.22
2022-12-31T06:11:37.968Z,86.05
2022-12-31T06:14:10.937Z,85.89
2022-12-31T06:16:45.026Z,85.77
2022-12-31T06:19:17.850Z,85.57
2022-12-31T06:21:50.344Z,85.46
2022-12-31T06:24:23.081Z,85.25
2022-12-31T06:26:55.663Z,85.17
2022-12-31T06:29:28.377Z,84.72
2022-12-31T06:32:03.247Z,84.79
2022-12-31T06:34:35.766Z,84.48
2022-12-31T06:37:08.561Z,84.45
2022-12-31T06:39:41.182Z,84.52
2022-12-31T06:42:14.355Z,84.28
2022-12-31T06:44:48.175Z,84.18
2022-12-31T06:47:20.986Z,84.11
2022-12-31T06:49:53.465Z,83.99
2022-12-31T06:52:26.074Z,83.97
2022-12-31T06:54:59.418Z,83.89
2022-12-31T06:57:32.870Z,83.82
2022-12-31T07:00:07.026Z,83.84
2022-12-31T07:03:11.143Z,83.79
2022-12-31T07:05:51.575Z,83.95
2022-12-31T07:08:51.197Z,83.73
2022-12-31T07:11:27.589Z,83.69
2022-12-31T07:14:09.921Z,83.47
2022-12-31T07:17:04.962Z,83.28
2022-12-31T07:19:57.172Z,83.29
2022-12-31T07:22:33.615Z,83.15
2022-12-31T07:25:08.359Z,82.63
2022-12-31T07:27:56.745Z,82.64
2022-12-31T07:30:37.408Z,82.41
2022-12-31T07:33:32.763Z,82.29
2022-12-31T07:36:19.081Z,82.09
2022-12-31T07:38:59.932Z,82.03
2022-12-31T07:41:44.376Z,81.91
2022-12-31T07:44:32.632Z,81.99
2022-12-31T07:47:17.204Z,81.91
2022-12-31T07:49:50.611Z,81.53
2022-12-31T07:52:24.892Z,81.29
2022-12-31T07:54:57.589Z,81.52
2022-12-31T07:57:42.331Z,81.45
2022-12-31T08:00:18.127Z,81.27
2022-12-31T08:03:13.039Z,80.92
2022-12-31T08:05:57.299Z,80.65
2022-12-31T08:08:43.181Z,80.45
2022-12-31T08:11:25.083Z,80.39
2022-12-31T08:14:02.073Z,79.97
2022-12-31T08:16:35.765Z,79.75
2022-12-31T08:19:16.907Z,79.43
2022-12-31T08:21:58.333Z,78.93
2022-12-31T08:24:41.698Z,78.30
2022-12-31T08:27:24.143Z,77.90
2022-12-31T08:30:03.960Z,77.70
2022-12-31T08:32:43.520Z,77.83
2022-12-31T08:35:26.272Z,77.32
2022-12-31T08:38:08.632Z,77.24
2022-12-31T08:41:02.149Z,77.31
2022-12-31T08:43:49.646Z,76.50
2022-12-31T08:46:27.937Z,76.06
2022-12-31T08:49:03.014Z,75.92
2022-12-31T08:51:36.518Z,75.67
2022-12-31T08:54:11.609Z,75.20
2022-12-31T08:56:51.453Z,75.08
2022-12-31T08:59:34.804Z,75.12
2022-12-31T09:02:24.969Z,74.79
2022-12-31T09:05:07.130Z,74.62
2022-12-31T09:07:42.706Z,74.89
2022-12-31T09:10:23.909Z,74.35
2022-12-31T09:13:04.358Z,74.14
2022-12-31T09:15:42.733Z,73.83
2022-12-31T09:18:14.679Z,73.59
2022-12-31T09:20:47.939Z,73.84
2022-12-31T09:23:22.751Z,73.79
2022-12-31T09:26:02.228Z,73.72
2022-12-31T09:28:44.209Z,73.97
2022-12-31T09:31:23.310Z,73.46
2022-12-31T09:34:03.969Z,73.46
2022-12-31T09:36:42.580Z,73.28
2022-12-31T09:39:24.278Z,73.34
2022-12-31T09:42:19.898Z,72.97
2022-12-31T09:45:20.819Z,73.02
2022-12-31T09:48:35.865Z,72.80
2022-12-31T09:51:28.522Z,72.24
2022-12-31T09:54:30.654Z,72.38
2022-12-31T09:57:38.962Z,71.94
2022-12-31T10:00:21.291Z,71.81
2022-12-31T10:03:09.274Z,70.91
2022-12-31T10:05:57.304Z,71.23
2022-12-31T10:08:49.271Z,70.66
2022-12-31T10:14:35.383Z,70.13
2022-12-31T10:17:19.595Z,70.26
2022-12-31T10:20:14.628Z,69.95
2022-12-31T10:23:03.449Z,69.80
2022-12-31T10:25:53.575Z,69.49
2022-12-31T10:28:40.853Z,69.53
2022-12-31T10:31:23.983Z,69.82
2022-12-31T10:34:14.273Z,70.19
2022-12-31T10:37:05.477Z,70.33
2022-12-31T10:39:52.047Z,70.20
2022-12-31T10:42:47.990Z,70.60
2022-12-31T10:45:47.865Z,70.59
2022-12-31T10:49:05.161Z,70.66
2022-12-31T10:52:07.469Z,71.05
2022-12-31T10:55:25.733Z,71.63
2022-12-31T10:58:27.060Z,71.39
2022-12-31T11:01:10.037Z,71.29
2022-12-31T11:04:21.227Z,71.08
2022-12-31T11:07:34.159Z,70.96
2022-12-31T11:10:58.380Z,71.15
2022-12-31T11:14:01.103Z,71.02
2022-12-31T11:17:13.809Z,70.80
2022-12-31T11:19:58.821Z,70.85
2022-12-31T11:22:58.038Z,71.01
2022-12-31T11:25:41.455Z,71.10
2022-12-31T11:28:32.622Z,71.16
2022-12-31T11:31:21.374Z,71.49
2022-12-31T11:34:11.862Z,71.99
2022-12-31T11:37:01.079Z,72.15
2022-12-31T11:39:46.177Z,72.42
2022-12-31T11:42:27.063Z,72.32
2022-12-31T11:45:04.023Z,72.09
2022-12-31T11:48:29.061Z,71.93
2022-12-31T11:50:59.418Z,71.83
2022-12-31T11:53:55.142Z,71.54
2022-12-31T11:56:33.737Z,71.52
2022-12-31T11:59:18.861Z,71.73
2022-12-31T12:02:00.036Z,71.43
2022-12-31T12:04:33.350Z,71.72
2022-12-31T12:07:11.939Z,71.64
2022-12-31T12:09:49.905Z,71.80
2022-12-31T12:12:22.969Z,71.97
2022-12-31T12:14:57.392Z,72.32
2022-12-31T12:17:34.567Z,72.34
2022-12-31T12:20:18.484Z,72.67
2022-12-31T12:22:57.627Z,72.92
2022-12-31T12:25:40.669Z,73.13
2022-12-31T12:28:23.760Z,73.25
2022-12-31T12:31:03.543Z,73.32
2022-12-31T12:33:46.875Z,73.39
2022-12-31T12:36:21.358Z,73.44
2022-12-31T12:39:04.969Z,73.50
2022-12-31T12:41:37.974Z,73.61
2022-12-31T12:44:17.276Z,73.79
2022-12-31T12:46:53.552Z,73.89
2022-12-31T12:49:28.618Z,73.95
2022-12-31T12:52:34.452Z,74.14
2022-12-31T12:55:22.110Z,74.25
2022-12-31T12:58:06.542Z,74.39
2022-12-31T13:00:44.921Z,74.66
2022-12-31T13:03:37.396Z,74.83
2022-12-31T13:06:29.466Z,74.93
2022-12-31T13:09:20.614Z,75.07
2022-12-31T13:12:07.773Z,75.01
2022-12-31T13:14:50.080Z,74.79
2022-12-31T13:17:41.081Z,74.78
2022-12-31T13:20:23.189Z,74.57
2022-12-31T13:23:06.806Z,74.40
2022-12-31T13:25:53.297Z,74.48
2022-12-31T13:28:26.211Z,74.53
2022-12-31T13:31:06.849Z,74.67
2022-12-31T13:33:45.618Z,75.00
2022-12-31T13:36:18.546Z,75.04
2022-12-31T13:38:54.417Z,75.49
2022-12-31T13:41:31.731Z,75.83
2022-12-31T13:44:13.468Z,75.96
2022-12-31T13:46:50.342Z,76.16
2022-12-31T13:49:28.539Z,76.30
2022-12-31T13:52:11.478Z,76.63
2022-12-31T13:54:53.395Z,76.72
2022-12-31T13:57:38.747Z,77.19
2022-12-31T14:00:24.284Z,77.42
2022-12-31T14:03:10.096Z,77.60
2022-12-31T14:05:50.293Z,77.83
2022-12-31T14:08:24.029Z,78.17
2022-12-31T14:11:06.402Z,78.51
2022-12-31T14:13:58.272Z,78.87
2022-12-31T14:16:43.900Z,79.26
2022-12-31T14:19:32.506Z,79.43
2022-12-31T14:22:21.793Z,79.72
2022-12-31T14:24:55.663Z,80.01
2022-12-31T14:27:32.594Z,80.09
2022-12-31T14:30:15.788Z,80.34
2022-12-31T14:33:05.540Z,80.52
2022-12-31T14:35:51.186Z,80.82
2022-12-31T14:38:38.247Z,81.11
2022-12-31T14:41:20.858Z,81.31
2022-12-31T14:44:04.785Z,81.38
2022-12-31T14:46:49.844Z,81.55
2022-12-31T14:49:42.553Z,81.92
2022-12-31T14:52:28.704Z,82.32
2022-12-31T14:55:24.500Z,82.60
2022-12-31T15:00:58.015Z,82.87
2022-12-31T15:03:44.693Z,83.53
2022-12-31T15:06:42.431Z,83.23
2022-12-31T15:09:53.835Z,83.63
2022-12-31T15:12:47.667Z,84.03
2022-12-31T15:15:35.171Z,84.01
2022-12-31T15:18:28.519Z,84.29
2022-12-31T15:21:30.027Z,84.27
2022-12-31T15:24:03.348Z,84.31
2022-12-31T15:26:36.392Z,84.36
2022-12-31T15:29:25.626Z,84.16
2022-12-31T15:32:02.147Z,84.42
2022-12-31T15:34:36.661Z,84.38
2022-12-31T15:37:31.372Z,84.79
2022-12-31T15:40:20.920Z,84.70
2022-12-31T15:42:59.565Z,84.76
2022-12-31T15:45:38.960Z,84.78
2022-12-31T15:48:16.848Z,84.93
2022-12-31T15:50:51.126Z,84.97
2022-12-31T15:53:30.947Z,84.84
2022-12-31T15:56:06.459Z,85.01
2022-12-31T15:58:39.806Z,84.89
2022-12-31T16:01:18.833Z,84.77
2022-12-31T16:03:56.121Z,84.96
2022-12-31T16:06:30.383Z,84.95
2022-12-31T16:09:03.182Z,84.96
2022-12-31T16:11:41.763Z,85.07
2022-12-31T16:14:26.318Z,85.04
2022-12-31T16:17:01.484Z,85.12
2022-12-31T16:19:37.376Z,85.20
2022-12-31T16:22:18.384Z,85.14
2022-12-31T16:25:29.013Z,85.23
2022-12-31T16:27:50.231Z,85.23
2022-12-31T16:30:29.664Z,85.11
2022-12-31T16:33:04.304Z,85.05
2022-12-31T16:35:38.090Z,85.00
2022-12-31T16:38:20.941Z,85.13
2022-12-31T16:41:17.725Z,84.95
2022-12-31T16:43:51.473Z,85.09
2022-12-31T16:46:27.299Z,84.88
2022-12-31T16:49:07.228Z,84.71
2022-12-31T16:51:41.093Z,84.59
2022-12-31T16:54:22.061Z,84.52
2022-12-31T16:56:55.169Z,84.57
2022-12-31T16:59:35.202Z,84.45
2022-12-31T17:02:16.260Z,84.39
2022-12-31T17:04:56.057Z,84.58
2022-12-31T17:07:41.699Z,84.53
2022-12-31T17:10:24.926Z,84.33
2022-12-31T17:15:53.697Z,84.34
2022-12-31T17:18:28.577Z,84.27
2022-12-31T17:21:09.958Z,84.28
2022-12-31T17:23:46.856Z,84.30
2022-12-31T17:26:27.983Z,84.16
2022-12-31T17:29:02.468Z,84.20
2022-12-31T17:31:41.569Z,83.95
2022-12-31T17:34:31.089Z,83.95
2022-12-31T17:37:19.941Z,83.91
2022-12-31T17:40:17.088Z,83.80
2022-12-31T17:42:51.647Z,83.78
2022-12-31T17:45:24.785Z,83.76
2022-12-31T17:48:01.168Z,83.70
2022-12-31T17:50:34.312Z,83.74
2022-12-31T17:53:13.819Z,83.73
2022-12-31T17:55:50.022Z,83.73
2022-12-31T17:58:29.795Z,83.58
2022-12-31T18:01:03.529Z,83.43
2022-12-31T18:03:38.013Z,83.25
2022-12-31T18:06:18.376Z,83.15
2022-12-31T18:08:53.025Z,82.90
2022-12-31T18:11:26.737Z,82.71
2022-12-31T18:13:59.576Z,82.65
2022-12-31T18:16:32.301Z,82.64
2022-12-31T18:19:23.500Z,82.47
2022-12-31T18:22:05.083Z,82.46
2022-12-31T18:24:48.325Z,82.40
2022-12-31T18:27:32.390Z,82.45
2022-12-31T18:30:07.115Z,82.47
2022-12-31T18:32:42.191Z,82.34
2022-12-31T18:35:57.569Z,82.60
2022-12-31T18:38:15.319Z,82.70
2022-12-31T18:40:56.094Z,82.84
2022-12-31T18:43:34.303Z,82.96
2022-12-31T18:46:11.229Z,82.91
2022-12-31T18:48:44.413Z,83.07
2022-12-31T18:51:19.846Z,83.12
2022-12-31T18:53:52.358Z,83.17
2022-12-31T18:56:27.876Z,83.46
2022-12-31T18:59:03.335Z,83.37
2022-12-31T19:01:38.355Z,83.56
2022-12-31T19:04:18.724Z,83.40
2022-12-31T19:06:54.729Z,83.43
2022-12-31T19:12:25.066Z,83.52
2022-12-31T19:14:57.583Z,83.81
2022-12-31T19:17:32.549Z,83.84
2022-12-31T19:20:05.660Z,83.88
2022-12-31T19:22:38.184Z,83.92
2022-12-31T19:25:21.268Z,83.93
2022-12-31T19:27:54.522Z,83.97
2022-12-31T19:30:29.003Z,83.92
2022-12-31T19:33:01.956Z,83.93
2022-12-31T19:35:34.550Z,83.67
2022-12-31T19:38:13.436Z,83.71
2022-12-31T19:40:46.598Z,83.54
2022-12-31T19:43:23.930Z,83.49
2022-12-31T19:45:57.168Z,83.40
2022-12-31T19:48:32.915Z,83.39
2022-12-31T19:51:09.805Z,83.28
2022-12-31T19:53:42.380Z,83.24
2022-12-31T19:56:20.024Z,83.34
2022-12-31T19:58:52.667Z,83.28
2022-12-31T20:01:26.567Z,83.35
2022-12-31T20:03:59.698Z,83.31
2022-12-31T20:06:32.283Z,83.20
2022-12-31T20:09:06.998Z,83.27
2022-12-31T20:11:39.755Z,83.20
2022-12-31T20:14:13.198Z,83.31
2022-12-31T20:16:45.881Z,83.18
2022-12-31T20:19:18.812Z,83.12
2022-12-31T20:21:51.418Z,83.20
2022-12-31T20:24:24.116Z,83.19
2022-12-31T20:26:56.650Z,83.23
2022-12-31T20:29:29.520Z,83.21
2022-12-31T20:32:02.190Z,83.35
2022-12-31T20:34:34.870Z,83.26
2022-12-31T20:37:07.814Z,83.32
2022-12-31T20:39:40.411Z,83.21
2022-12-31T20:42:12.952Z,83.22
2022-12-31T20:44:45.526Z,83.30
2022-12-31T20:47:18.478Z,83.25
2022-12-31T20:50:10.906Z,83.32
2022-12-31T20:52:45.638Z,83.15
2022-12-31T20:55:19.227Z,83.22
2022-12-31T20:57:53.869Z,83.30
2022-12-31T21:00:26.541Z,83.34
2022-12-31T21:03:10.487Z,83.23
2022-12-31T21:05:53.962Z,83.47
2022-12-31T21:08:31.131Z,83.47
2022-12-31T21:11:29.697Z,83.31
2022-12-31T21:14:03.054Z,83.27
2022-12-31T21:16:35.979Z,83.35
2022-12-31T21:19:12.678Z,83.25
2022-12-31T21:21:45.215Z,83.23
2022-12-31T21:24:23.529Z,83.14
2022-12-31T21:26:57.872Z,82.98
2022-12-31T21:29:34.539Z,83.16
2022-12-31T21:32:08.337Z,83.11
2022-12-31T21:34:42.221Z,83.05
2022-12-31T21:37:16.998Z,83.01
2022-12-31T21:39:49.484Z,83.00
2022-12-31T21:42:22.077Z,83.13
2022-12-31T21:44:54.637Z,83.01
2022-12-31T21:47:47.592Z,83.04
2022-12-31T21:50:20.981Z,83.27
2022-12-31T21:52:53.496Z,83.29
2022-12-31T21:55:43.344Z,83.28
2022-12-31T21:58:27.267Z,83.30
2022-12-31T22:01:18.764Z,83.32
2022-12-31T22:03:51.470Z,83.44
2022-12-31T22:06:26.021Z,83.53
2022-12-31T22:08:59.001Z,83.60
2022-12-31T22:11:31.669Z,83.76
2022-12-31T22:14:06.661Z,83.84
2022-12-31T22:16:39.650Z,83.85
2022-12-31T22:19:13.866Z,83.89
2022-12-31T22:21:46.386Z,83.97
2022-12-31T22:24:20.213Z,84.10
2022-12-31T22:26:55.708Z,84.06
2022-12-31T22:29:29.176Z,84.13
2022-12-31T22:32:01.800Z,84.23
2022-12-31T22:34:34.317Z,84.24
2022-12-31T22:37:27.485Z,84.20
2022-12-31T22:40:03.104Z,84.20
2022-12-31T22:42:36.253Z,84.07
2022-12-31T22:45:10.979Z,84.06
2022-12-31T22:47:43.550Z,84.10
2022-12-31T22:50:16.479Z,84.19
2022-12-31T22:52:48.973Z,84.17
2022-12-31T22:55:21.655Z,84.07
2022-12-31T22:57:54.451Z,84.26
2022-12-31T23:00:38.756Z,84.28
2022-12-31T23:03:11.497Z,84.46
2022-12-31T23:05:44.290Z,84.31
2022-12-31T23:08:23.133Z,84.31
2022-12-31T23:11:05.749Z,84.36
2022-12-31T23:14:01.603Z,84.44
2022-12-31T23:16:52.075Z,84.45
2022-12-31T23:19:42.017Z,84.32
2022-12-31T23:22:31.652Z,84.19
2022-12-31T23:25:04.211Z,84.05
2022-12-31T23:27:36.814Z,83.85
2022-12-31T23:30:13.025Z,83.87
2022-12-31T23:32:45.567Z,83.61
2022-12-31T23:35:18.210Z,83.46
2022-12-31T23:37:51.025Z,83.30
2022-12-31T23:40:23.725Z,83.24
2022-12-31T23:42:56.967Z,83.06
2022-12-31T23:45:33.041Z,82.95
2022-12-31T23:48:06.613Z,82.67
2022-12-31T23:50:41.316Z,82.54
2022-12-31T23:53:14.251Z,82.63
2022-12-31T23:55:46.782Z,82.47
2022-12-31T23:58:19.414Z,82.40
